sensor_id;sensor_type;location;lat;lon;timestamp;P1;durP1;ratioP1;P2;durP2;ratioP2
51985;SDS011;38002;53.296;6.600;2023-04-03T00:04:07;0.85;;;0.70;;
51985;SDS011;38002;53.296;6.600;2023-04-03T00:09:07;1.27;;;0.80;;
51985;SDS011;38002;53.296;6.600;2023-04-03T00:14:08;1.20;;;0.88;;
51985;SDS011;38002;53.296;6.600;2023-04-03T00:19:08;0.40;;;0.40;;
51985;SDS011;38002;53.296;6.600;2023-04-03T00:24:11;0.75;;;0.75;;
51985;SDS011;38002;53.296;6.600;2023-04-03T00:29:12;0.93;;;0.80;;
51985;SDS011;38002;53.296;6.600;2023-04-03T00:34:12;0.70;;;0.70;;
51985;SDS011;38002;53.296;6.600;2023-04-03T00:39:12;1.98;;;0.60;;
51985;SDS011;38002;53.296;6.600;2023-04-03T00:49:20;1.08;;;0.70;;
51985;SDS011;38002;53.296;6.600;2023-04-03T00:54:21;0.70;;;0.70;;
51985;SDS011;38002;53.296;6.600;2023-04-03T00:59:23;2.25;;;0.70;;
51985;SDS011;38002;53.296;6.600;2023-04-03T01:09:32;0.93;;;0.60;;
51985;SDS011;38002;53.296;6.600;2023-04-03T01:14:33;5.60;;;1.23;;
51985;SDS011;38002;53.296;6.600;2023-04-03T01:19:34;0.90;;;0.90;;
51985;SDS011;38002;53.296;6.600;2023-04-03T01:24:41;1.92;;;0.82;;
51985;SDS011;38002;53.296;6.600;2023-04-03T01:29:41;2.15;;;1.25;;
51985;SDS011;38002;53.296;6.600;2023-04-03T01:34:43;2.40;;;1.33;;
51985;SDS011;38002;53.296;6.600;2023-04-03T01:39:43;1.23;;;0.82;;
51985;SDS011;38002;53.296;6.600;2023-04-03T01:44:44;0.88;;;0.88;;
51985;SDS011;38002;53.296;6.600;2023-04-03T01:49:45;2.20;;;1.08;;
51985;SDS011;38002;53.296;6.600;2023-04-03T01:54:45;2.63;;;1.27;;
51985;SDS011;38002;53.296;6.600;2023-04-03T01:59:46;3.72;;;1.00;;
51985;SDS011;38002;53.296;6.600;2023-04-03T02:04:46;2.33;;;1.13;;
51985;SDS011;38002;53.296;6.600;2023-04-03T02:09:47;1.77;;;1.05;;
51985;SDS011;38002;53.296;6.600;2023-04-03T02:14:47;2.65;;;0.90;;
51985;SDS011;38002;53.296;6.600;2023-04-03T02:19:47;2.50;;;1.30;;
51985;SDS011;38002;53.296;6.600;2023-04-03T02:24:48;1.33;;;0.98;;
51985;SDS011;38002;53.296;6.600;2023-04-03T02:29:48;3.72;;;0.98;;
51985;SDS011;38002;53.296;6.600;2023-04-03T02:34:49;2.63;;;1.15;;
51985;SDS011;38002;53.296;6.600;2023-04-03T02:39:49;3.45;;;1.17;;
51985;SDS011;38002;53.296;6.600;2023-04-03T02:44:50;1.38;;;1.25;;
51985;SDS011;38002;53.296;6.600;2023-04-03T02:49:50;3.13;;;0.95;;
51985;SDS011;38002;53.296;6.600;2023-04-03T02:54:52;3.28;;;1.13;;
51985;SDS011;38002;53.296;6.600;2023-04-03T02:59:53;6.47;;;1.83;;
51985;SDS011;38002;53.296;6.600;2023-04-03T03:04:53;2.10;;;1.10;;
51985;SDS011;38002;53.296;6.600;2023-04-03T03:09:54;2.30;;;1.00;;
51985;SDS011;38002;53.296;6.600;2023-04-03T03:14:54;5.97;;;1.30;;
51985;SDS011;38002;53.296;6.600;2023-04-03T03:19:55;2.33;;;1.20;;
51985;SDS011;38002;53.296;6.600;2023-04-03T03:24:55;2.90;;;1.30;;
51985;SDS011;38002;53.296;6.600;2023-04-03T03:29:55;3.28;;;1.10;;
51985;SDS011;38002;53.296;6.600;2023-04-03T03:34:56;2.55;;;1.30;;
51985;SDS011;38002;53.296;6.600;2023-04-03T03:39:56;3.55;;;2.33;;
51985;SDS011;38002;53.296;6.600;2023-04-03T03:44:57;4.55;;;1.30;;
51985;SDS011;38002;53.296;6.600;2023-04-03T03:49:57;1.58;;;1.23;;
51985;SDS011;38002;53.296;6.600;2023-04-03T03:54:58;4.45;;;1.50;;
51985;SDS011;38002;53.296;6.600;2023-04-03T03:59:58;1.58;;;0.93;;
51985;SDS011;38002;53.296;6.600;2023-04-03T04:04:59;4.15;;;1.40;;
51985;SDS011;38002;53.296;6.600;2023-04-03T04:09:59;7.32;;;1.55;;
51985;SDS011;38002;53.296;6.600;2023-04-03T04:15:00;4.60;;;1.70;;
51985;SDS011;38002;53.296;6.600;2023-04-03T04:20:02;3.38;;;1.63;;
51985;SDS011;38002;53.296;6.600;2023-04-03T04:25:05;4.32;;;1.90;;
51985;SDS011;38002;53.296;6.600;2023-04-03T04:30:05;2.28;;;1.25;;
51985;SDS011;38002;53.296;6.600;2023-04-03T04:35:07;3.03;;;1.52;;
51985;SDS011;38002;53.296;6.600;2023-04-03T04:40:08;5.67;;;2.10;;
51985;SDS011;38002;53.296;6.600;2023-04-03T04:45:09;4.03;;;1.50;;
51985;SDS011;38002;53.296;6.600;2023-04-03T04:50:09;4.82;;;1.50;;
51985;SDS011;38002;53.296;6.600;2023-04-03T04:55:10;1.92;;;1.27;;
51985;SDS011;38002;53.296;6.600;2023-04-03T05:00:11;4.57;;;1.60;;
51985;SDS011;38002;53.296;6.600;2023-04-03T05:05:12;6.57;;;1.93;;
51985;SDS011;38002;53.296;6.600;2023-04-03T05:10:12;3.85;;;1.77;;
51985;SDS011;38002;53.296;6.600;2023-04-03T05:15:13;3.17;;;1.63;;
51985;SDS011;38002;53.296;6.600;2023-04-03T05:20:13;6.47;;;1.65;;
51985;SDS011;38002;53.296;6.600;2023-04-03T05:25:14;2.70;;;2.00;;
51985;SDS011;38002;53.296;6.600;2023-04-03T05:30:14;1.50;;;1.40;;
51985;SDS011;38002;53.296;6.600;2023-04-03T05:35:15;4.00;;;2.05;;
51985;SDS011;38002;53.296;6.600;2023-04-03T05:40:15;3.70;;;1.75;;
51985;SDS011;38002;53.296;6.600;2023-04-03T05:45:16;5.75;;;2.10;;
51985;SDS011;38002;53.296;6.600;2023-04-03T05:50:17;7.25;;;2.25;;
51985;SDS011;38002;53.296;6.600;2023-04-03T05:55:17;3.58;;;1.52;;
51985;SDS011;38002;53.296;6.600;2023-04-03T06:00:18;2.80;;;2.00;;
51985;SDS011;38002;53.296;6.600;2023-04-03T06:05:18;5.38;;;1.70;;
51985;SDS011;38002;53.296;6.600;2023-04-03T06:10:19;13.32;;;2.35;;
51985;SDS011;38002;53.296;6.600;2023-04-03T06:15:20;6.00;;;2.17;;
51985;SDS011;38002;53.296;6.600;2023-04-03T06:20:21;5.03;;;2.42;;
51985;SDS011;38002;53.296;6.600;2023-04-03T06:25:22;3.53;;;1.73;;
51985;SDS011;38002;53.296;6.600;2023-04-03T06:30:22;15.43;;;2.17;;
51985;SDS011;38002;53.296;6.600;2023-04-03T06:35:23;5.15;;;2.63;;
51985;SDS011;38002;53.296;6.600;2023-04-03T06:40:24;1.98;;;1.80;;
51985;SDS011;38002;53.296;6.600;2023-04-03T06:45:26;10.02;;;2.28;;
51985;SDS011;38002;53.296;6.600;2023-04-03T06:50:27;2.93;;;1.97;;
51985;SDS011;38002;53.296;6.600;2023-04-03T06:55:28;2.05;;;1.60;;
51985;SDS011;38002;53.296;6.600;2023-04-03T07:00:28;3.38;;;1.77;;
51985;SDS011;38002;53.296;6.600;2023-04-03T07:05:29;3.35;;;2.00;;
51985;SDS011;38002;53.296;6.600;2023-04-03T07:10:30;7.00;;;2.30;;
51985;SDS011;38002;53.296;6.600;2023-04-03T07:15:31;5.07;;;2.63;;
51985;SDS011;38002;53.296;6.600;2023-04-03T07:20:32;3.53;;;2.25;;
51985;SDS011;38002;53.296;6.600;2023-04-03T07:25:32;7.15;;;1.52;;
51985;SDS011;38002;53.296;6.600;2023-04-03T07:30:33;4.47;;;1.52;;
51985;SDS011;38002;53.296;6.600;2023-04-03T07:35:34;2.08;;;1.67;;
51985;SDS011;38002;53.296;6.600;2023-04-03T07:40:35;4.97;;;2.03;;
51985;SDS011;38002;53.296;6.600;2023-04-03T07:45:36;3.95;;;2.05;;
51985;SDS011;38002;53.296;6.600;2023-04-03T07:50:36;4.80;;;1.50;;
51985;SDS011;38002;53.296;6.600;2023-04-03T07:55:36;4.03;;;1.63;;
51985;SDS011;38002;53.296;6.600;2023-04-03T08:00:43;10.60;;;2.00;;
51985;SDS011;38002;53.296;6.600;2023-04-03T08:05:45;3.45;;;1.35;;
51985;SDS011;38002;53.296;6.600;2023-04-03T08:10:50;5.90;;;1.50;;
51985;SDS011;38002;53.296;6.600;2023-04-03T08:15:52;5.90;;;1.63;;
51985;SDS011;38002;53.296;6.600;2023-04-03T08:20:52;5.85;;;1.50;;
51985;SDS011;38002;53.296;6.600;2023-04-03T08:25:53;2.05;;;1.35;;
51985;SDS011;38002;53.296;6.600;2023-04-03T08:30:53;4.20;;;1.25;;
51985;SDS011;38002;53.296;6.600;2023-04-03T08:35:54;3.40;;;1.00;;
51985;SDS011;38002;53.296;6.600;2023-04-03T08:41:05;3.75;;;1.23;;
51985;SDS011;38002;53.296;6.600;2023-04-03T08:46:08;8.43;;;1.40;;
51985;SDS011;38002;53.296;6.600;2023-04-03T08:51:14;2.17;;;1.25;;
51985;SDS011;38002;53.296;6.600;2023-04-03T08:56:17;2.22;;;1.55;;
51985;SDS011;38002;53.296;6.600;2023-04-03T09:01:40;2.20;;;1.05;;
51985;SDS011;38002;53.296;6.600;2023-04-03T09:06:42;4.18;;;1.50;;
51985;SDS011;38002;53.296;6.600;2023-04-03T09:12:12;3.90;;;1.33;;
51985;SDS011;38002;53.296;6.600;2023-04-03T09:22:23;3.22;;;0.95;;
51985;SDS011;38002;53.296;6.600;2023-04-03T09:27:25;4.60;;;1.30;;
51985;SDS011;38002;53.296;6.600;2023-04-03T09:32:28;2.50;;;1.10;;
51985;SDS011;38002;53.296;6.600;2023-04-03T09:37:42;0.98;;;0.70;;
51985;SDS011;38002;53.296;6.600;2023-04-03T09:42:44;4.05;;;1.25;;
51985;SDS011;38002;53.296;6.600;2023-04-03T09:47:45;1.90;;;1.40;;
51985;SDS011;38002;53.296;6.600;2023-04-03T09:52:47;2.17;;;0.90;;
51985;SDS011;38002;53.296;6.600;2023-04-03T09:57:49;3.30;;;1.13;;
51985;SDS011;38002;53.296;6.600;2023-04-03T10:02:51;1.45;;;0.88;;
51985;SDS011;38002;53.296;6.600;2023-04-03T10:08:06;1.77;;;0.90;;
51985;SDS011;38002;53.296;6.600;2023-04-03T10:13:14;2.67;;;1.10;;
51985;SDS011;38002;53.296;6.600;2023-04-03T10:28:35;2.55;;;1.00;;
51985;SDS011;38002;53.296;6.600;2023-04-03T10:50:02;1.35;;;0.70;;
51985;SDS011;38002;53.296;6.600;2023-04-03T11:00:39;3.90;;;0.85;;
51985;SDS011;38002;53.296;6.600;2023-04-03T11:05:44;0.93;;;0.52;;
51985;SDS011;38002;53.296;6.600;2023-04-03T11:10:46;1.88;;;0.80;;
51985;SDS011;38002;53.296;6.600;2023-04-03T11:15:49;1.80;;;0.80;;
51985;SDS011;38002;53.296;6.600;2023-04-03T11:20:57;2.95;;;0.68;;
51985;SDS011;38002;53.296;6.600;2023-04-03T11:26:11;1.77;;;0.88;;
51985;SDS011;38002;53.296;6.600;2023-04-03T11:47:44;0.75;;;0.50;;
51985;SDS011;38002;53.296;6.600;2023-04-03T12:02:59;1.98;;;0.70;;
51985;SDS011;38002;53.296;6.600;2023-04-03T12:08:46;0.85;;;0.70;;
51985;SDS011;38002;53.296;6.600;2023-04-03T12:13:27;0.60;;;0.60;;
51985;SDS011;38002;53.296;6.600;2023-04-03T12:18:36;4.22;;;1.00;;
51985;SDS011;38002;53.296;6.600;2023-04-03T12:24:44;2.83;;;0.70;;
51985;SDS011;38002;53.296;6.600;2023-04-03T12:34:34;2.05;;;0.70;;
51985;SDS011;38002;53.296;6.600;2023-04-03T12:44:57;3.78;;;1.00;;
51985;SDS011;38002;53.296;6.600;2023-04-03T12:50:22;1.67;;;0.70;;
51985;SDS011;38002;53.296;6.600;2023-04-03T12:55:24;0.60;;;0.60;;
51985;SDS011;38002;53.296;6.600;2023-04-03T13:05:26;1.83;;;0.60;;
51985;SDS011;38002;53.296;6.600;2023-04-03T13:10:28;3.22;;;0.82;;
51985;SDS011;38002;53.296;6.600;2023-04-03T13:15:39;0.82;;;0.60;;
51985;SDS011;38002;53.296;6.600;2023-04-03T13:20:49;1.67;;;0.65;;
51985;SDS011;38002;53.296;6.600;2023-04-03T13:25:50;1.03;;;0.73;;
51985;SDS011;38002;53.296;6.600;2023-04-03T13:36:37;2.17;;;0.73;;
51985;SDS011;38002;53.296;6.600;2023-04-03T13:41:44;1.90;;;1.10;;
51985;SDS011;38002;53.296;6.600;2023-04-03T13:51:49;4.88;;;0.88;;
51985;SDS011;38002;53.296;6.600;2023-04-03T13:56:55;2.40;;;0.90;;
51985;SDS011;38002;53.296;6.600;2023-04-03T14:07:04;2.55;;;0.95;;
51985;SDS011;38002;53.296;6.600;2023-04-03T14:12:05;3.83;;;0.90;;
51985;SDS011;38002;53.296;6.600;2023-04-03T14:17:16;1.42;;;0.70;;
51985;SDS011;38002;53.296;6.600;2023-04-03T14:22:26;1.40;;;0.70;;
51985;SDS011;38002;53.296;6.600;2023-04-03T14:27:33;1.27;;;0.65;;
51985;SDS011;38002;53.296;6.600;2023-04-03T14:32:35;3.28;;;0.70;;
51985;SDS011;38002;53.296;6.600;2023-04-03T14:37:36;1.17;;;0.60;;
51985;SDS011;38002;53.296;6.600;2023-04-03T14:42:36;0.50;;;0.50;;
51985;SDS011;38002;53.296;6.600;2023-04-03T14:47:44;2.93;;;1.07;;
51985;SDS011;38002;53.296;6.600;2023-04-03T14:52:48;3.88;;;0.80;;
51985;SDS011;38002;53.296;6.600;2023-04-03T14:57:50;2.33;;;0.43;;
51985;SDS011;38002;53.296;6.600;2023-04-03T15:02:51;2.67;;;0.60;;
51985;SDS011;38002;53.296;6.600;2023-04-03T15:07:52;0.90;;;0.30;;
51985;SDS011;38002;53.296;6.600;2023-04-03T15:12:55;0.60;;;0.55;;
51985;SDS011;38002;53.296;6.600;2023-04-03T15:17:56;2.87;;;0.50;;
51985;SDS011;38002;53.296;6.600;2023-04-03T15:23:00;3.03;;;0.40;;
51985;SDS011;38002;53.296;6.600;2023-04-03T15:28:01;0.40;;;0.40;;
51985;SDS011;38002;53.296;6.600;2023-04-03T15:33:01;0.95;;;0.55;;
51985;SDS011;38002;53.296;6.600;2023-04-03T15:38:02;2.37;;;0.70;;
51985;SDS011;38002;53.296;6.600;2023-04-03T15:43:02;1.77;;;0.70;;
51985;SDS011;38002;53.296;6.600;2023-04-03T15:53:05;5.03;;;0.93;;
51985;SDS011;38002;53.296;6.600;2023-04-03T15:58:06;4.63;;;0.88;;
51985;SDS011;38002;53.296;6.600;2023-04-03T16:03:11;1.00;;;0.32;;
51985;SDS011;38002;53.296;6.600;2023-04-03T16:08:14;1.10;;;0.63;;
51985;SDS011;38002;53.296;6.600;2023-04-03T16:13:17;1.70;;;0.90;;
51985;SDS011;38002;53.296;6.600;2023-04-03T16:18:18;1.63;;;0.90;;
51985;SDS011;38002;53.296;6.600;2023-04-03T16:23:18;5.78;;;1.00;;
51985;SDS011;38002;53.296;6.600;2023-04-03T16:28:19;2.45;;;0.80;;
51985;SDS011;38002;53.296;6.600;2023-04-03T16:33:20;2.67;;;0.80;;
51985;SDS011;38002;53.296;6.600;2023-04-03T16:38:21;1.42;;;0.50;;
51985;SDS011;38002;53.296;6.600;2023-04-03T16:43:22;1.63;;;0.88;;
51985;SDS011;38002;53.296;6.600;2023-04-03T16:48:22;1.42;;;0.90;;
51985;SDS011;38002;53.296;6.600;2023-04-03T16:53:23;1.73;;;0.70;;
51985;SDS011;38002;53.296;6.600;2023-04-03T16:58:24;2.45;;;0.77;;
51985;SDS011;38002;53.296;6.600;2023-04-03T17:03:25;1.90;;;0.90;;
51985;SDS011;38002;53.296;6.600;2023-04-03T17:08:26;0.80;;;0.60;;
51985;SDS011;38002;53.296;6.600;2023-04-03T17:13:26;3.60;;;0.82;;
51985;SDS011;38002;53.296;6.600;2023-04-03T17:18:31;1.52;;;0.80;;
51985;SDS011;38002;53.296;6.600;2023-04-03T17:23:33;1.08;;;0.77;;
51985;SDS011;38002;53.296;6.600;2023-04-03T17:28:38;4.03;;;1.35;;
51985;SDS011;38002;53.296;6.600;2023-04-03T17:33:39;1.95;;;0.95;;
51985;SDS011;38002;53.296;6.600;2023-04-03T17:38:40;1.55;;;0.95;;
51985;SDS011;38002;53.296;6.600;2023-04-03T17:43:40;1.02;;;0.90;;
51985;SDS011;38002;53.296;6.600;2023-04-03T17:48:41;0.70;;;0.70;;
51985;SDS011;38002;53.296;6.600;2023-04-03T17:53:42;2.47;;;1.00;;
51985;SDS011;38002;53.296;6.600;2023-04-03T17:58:45;2.20;;;0.80;;
51985;SDS011;38002;53.296;6.600;2023-04-03T18:03:47;2.85;;;0.80;;
51985;SDS011;38002;53.296;6.600;2023-04-03T18:08:49;0.95;;;0.95;;
51985;SDS011;38002;53.296;6.600;2023-04-03T18:13:52;1.23;;;1.02;;
51985;SDS011;38002;53.296;6.600;2023-04-03T18:23:54;1.48;;;1.02;;
51985;SDS011;38002;53.296;6.600;2023-04-03T18:28:57;4.97;;;1.47;;
51985;SDS011;38002;53.296;6.600;2023-04-03T18:34:01;1.05;;;0.90;;
51985;SDS011;38002;53.296;6.600;2023-04-03T18:39:02;2.35;;;1.10;;
51985;SDS011;38002;53.296;6.600;2023-04-03T18:44:03;1.20;;;1.10;;
51985;SDS011;38002;53.296;6.600;2023-04-03T18:49:06;8.18;;;1.85;;
51985;SDS011;38002;53.296;6.600;2023-04-03T18:59:08;2.10;;;1.13;;
51985;SDS011;38002;53.296;6.600;2023-04-03T19:04:09;3.70;;;1.85;;
51985;SDS011;38002;53.296;6.600;2023-04-03T19:09:10;15.07;;;1.90;;
51985;SDS011;38002;53.296;6.600;2023-04-03T19:14:12;7.78;;;1.95;;
51985;SDS011;38002;53.296;6.600;2023-04-03T19:19:12;2.10;;;1.73;;
51985;SDS011;38002;53.296;6.600;2023-04-03T19:24:13;2.20;;;1.50;;
51985;SDS011;38002;53.296;6.600;2023-04-03T19:29:13;2.60;;;1.10;;
51985;SDS011;38002;53.296;6.600;2023-04-03T19:34:14;7.25;;;1.75;;
51985;SDS011;38002;53.296;6.600;2023-04-03T19:39:14;1.65;;;1.42;;
51985;SDS011;38002;53.296;6.600;2023-04-03T19:44:15;1.60;;;1.40;;
51985;SDS011;38002;53.296;6.600;2023-04-03T19:49:15;2.67;;;1.00;;
51985;SDS011;38002;53.296;6.600;2023-04-03T19:54:16;3.90;;;1.70;;
51985;SDS011;38002;53.296;6.600;2023-04-03T19:59:16;2.25;;;1.73;;
51985;SDS011;38002;53.296;6.600;2023-04-03T20:04:17;2.17;;;1.70;;
51985;SDS011;38002;53.296;6.600;2023-04-03T20:09:18;4.25;;;1.63;;
51985;SDS011;38002;53.296;6.600;2023-04-03T20:14:20;3.53;;;1.35;;
51985;SDS011;38002;53.296;6.600;2023-04-03T20:19:21;1.92;;;1.40;;
51985;SDS011;38002;53.296;6.600;2023-04-03T20:24:25;2.72;;;1.48;;
51985;SDS011;38002;53.296;6.600;2023-04-03T20:29:30;4.90;;;1.30;;
51985;SDS011;38002;53.296;6.600;2023-04-03T20:34:31;1.85;;;1.40;;
51985;SDS011;38002;53.296;6.600;2023-04-03T20:39:31;2.75;;;1.90;;
51985;SDS011;38002;53.296;6.600;2023-04-03T20:44:32;3.97;;;1.98;;
51985;SDS011;38002;53.296;6.600;2023-04-03T20:49:32;4.03;;;1.65;;
51985;SDS011;38002;53.296;6.600;2023-04-03T20:54:33;3.38;;;1.60;;
51985;SDS011;38002;53.296;6.600;2023-04-03T20:59:34;5.35;;;1.52;;
51985;SDS011;38002;53.296;6.600;2023-04-03T21:04:38;1.08;;;1.00;;
51985;SDS011;38002;53.296;6.600;2023-04-03T21:20:54;2.25;;;1.92;;
51985;SDS011;38002;53.296;6.600;2023-04-03T21:25:55;3.03;;;1.80;;
51985;SDS011;38002;53.296;6.600;2023-04-03T21:30:56;1.45;;;1.27;;
51985;SDS011;38002;53.296;6.600;2023-04-03T21:35:56;1.88;;;1.20;;
51985;SDS011;38002;53.296;6.600;2023-04-03T21:41:00;3.33;;;1.58;;
51985;SDS011;38002;53.296;6.600;2023-04-03T21:46:01;2.35;;;1.70;;
51985;SDS011;38002;53.296;6.600;2023-04-03T21:51:02;2.40;;;1.33;;
51985;SDS011;38002;53.296;6.600;2023-04-03T22:01:14;3.40;;;1.58;;
51985;SDS011;38002;53.296;6.600;2023-04-03T22:06:15;5.50;;;1.67;;
51985;SDS011;38002;53.296;6.600;2023-04-03T22:11:16;4.13;;;2.28;;
51985;SDS011;38002;53.296;6.600;2023-04-03T22:16:16;3.28;;;1.98;;
51985;SDS011;38002;53.296;6.600;2023-04-03T22:21:17;4.43;;;1.90;;
51985;SDS011;38002;53.296;6.600;2023-04-03T22:26:17;2.00;;;1.90;;
51985;SDS011;38002;53.296;6.600;2023-04-03T22:31:18;4.95;;;2.13;;
51985;SDS011;38002;53.296;6.600;2023-04-03T22:36:19;2.37;;;2.17;;
51985;SDS011;38002;53.296;6.600;2023-04-03T22:41:20;4.05;;;2.33;;
51985;SDS011;38002;53.296;6.600;2023-04-03T22:46:21;4.47;;;2.20;;
51985;SDS011;38002;53.296;6.600;2023-04-03T22:51:21;5.97;;;2.60;;
51985;SDS011;38002;53.296;6.600;2023-04-03T22:56:22;2.65;;;1.60;;
51985;SDS011;38002;53.296;6.600;2023-04-03T23:01:22;4.32;;;2.10;;
51985;SDS011;38002;53.296;6.600;2023-04-03T23:06:24;5.28;;;2.30;;
51985;SDS011;38002;53.296;6.600;2023-04-03T23:11:25;5.05;;;2.30;;
51985;SDS011;38002;53.296;6.600;2023-04-03T23:16:28;3.08;;;2.40;;
51985;SDS011;38002;53.296;6.600;2023-04-03T23:21:29;7.40;;;2.13;;
51985;SDS011;38002;53.296;6.600;2023-04-03T23:26:29;3.67;;;2.08;;
51985;SDS011;38002;53.296;6.600;2023-04-03T23:31:29;3.33;;;2.25;;
51985;SDS011;38002;53.296;6.600;2023-04-03T23:36:30;7.30;;;2.70;;
51985;SDS011;38002;53.296;6.600;2023-04-03T23:41:31;2.20;;;2.00;;
51985;SDS011;38002;53.296;6.600;2023-04-03T23:46:31;3.08;;;2.30;;
51985;SDS011;38002;53.296;6.600;2023-04-03T23:51:31;2.25;;;2.03;;
51985;SDS011;38002;53.296;6.600;2023-04-03T23:56:32;8.98;;;2.25;;
